Time;durP1;ratioP1;P1;durP2;ratioP2;P2;SDS_P1;SDS_P2;PMS_P1;PMS_P2;Temp;Humidity;BMP_temperature;BMP_pressure;BME280_temperature;BME280_humidity;BME280_pressure;Samples;Min_cycle;Max_cycle;Signal;HPM_P1;HPM_P2
2022/01/14 00:01:52;;;;;;;0.00;0.00;;;1.60;83.00;;;;;;4166898;28;20045;-59
2022/01/14 00:04:15;;;;;;;0.00;0.00;;;1.50;83.30;;;;;;4162550;28;20053;-60
2022/01/14 00:06:38;;;;;;;0.00;0.00;;;1.50;83.50;;;;;;4166470;28;20041;-59
2022/01/14 00:09:07;;;;;;;0.00;0.00;;;1.50;83.50;;;;;;4179229;28;20049;-59
2022/01/14 00:11:31;;;;;;;0.00;0.00;;;1.40;83.50;;;;;;4168149;28;20057;-59
2022/01/14 00:14:09;;;;;;;0.00;0.00;;;1.40;83.60;;;;;;4176849;28;20052;-59
2022/01/14 00:16:32;;;;;;;0.00;0.00;;;1.40;83.50;;;;;;4178853;28;20073;-59
2022/01/14 00:18:57;;;;;;;0.00;0.00;;;1.50;83.50;;;;;;4179279;28;20053;-59
2022/01/14 00:21:20;;;;;;;0.00;0.00;;;1.60;83.70;;;;;;4178773;28;20140;-59
2022/01/14 00:23:45;;;;;;;0.00;0.00;;;1.50;83.30;;;;;;4179139;28;20056;-59
2022/01/14 00:34:04;;;;;;;0.00;0.00;;;1.50;83.30;;;;;;4163162;28;20566;-60
2022/01/14 00:36:27;;;;;;;0.00;0.00;;;1.50;83.30;;;;;;4178489;28;20048;-59
2022/01/14 00:38:49;;;;;;;0.00;0.00;;;1.50;83.20;;;;;;4192817;28;20048;-57
2022/01/14 00:41:11;;;;;;;0.00;0.00;;;1.50;83.10;;;;;;4178524;28;20045;-59
2022/01/14 00:43:34;;;;;;;0.00;0.00;;;1.50;83.30;;;;;;4192711;28;20406;-57
2022/01/14 00:45:57;;;;;;;0.00;0.00;;;1.30;83.80;;;;;;4178643;28;20059;-60
2022/01/14 00:48:20;;;;;;;0.00;0.00;;;1.30;84.30;;;;;;4178405;28;20091;-59
2022/01/14 00:50:45;;;;;;;0.00;0.00;;;1.20;84.60;;;;;;4192287;28;20063;-60
2022/01/14 00:53:07;;;;;;;0.00;0.00;;;1.10;84.70;;;;;;4178668;28;20542;-60
2022/01/14 00:55:42;;;;;;;0.00;0.00;;;1.10;84.70;;;;;;4178615;28;20565;-57
2022/01/14 01:00:45;;;;;;;0.00;0.00;;;1.00;85.10;;;;;;4177005;28;20049;-59
2022/01/14 01:03:12;;;;;;;0.00;0.00;;;0.90;85.40;;;;;;4178177;28;20279;-60
2022/01/14 01:05:52;;;;;;;0.00;0.00;;;0.90;85.80;;;;;;4166190;28;20041;-60
2022/01/14 01:08:21;;;;;;;0.00;0.00;;;1.00;85.80;;;;;;4161091;28;20449;-60
2022/01/14 01:10:49;;;;;;;0.00;0.00;;;1.00;85.70;;;;;;4151031;28;20478;-59
2022/01/14 01:13:20;;;;;;;0.00;0.00;;;1.00;85.80;;;;;;4154619;28;20542;-59
2022/01/14 01:15:53;;;;;;;0.00;0.00;;;0.90;85.80;;;;;;4146519;28;20133;-59
2022/01/14 01:18:19;;;;;;;0.00;0.00;;;0.90;86.10;;;;;;4147029;28;20377;-60
2022/01/14 01:20:47;;;;;;;0.00;0.00;;;0.90;86.20;;;;;;4162500;28;20041;-60
2022/01/14 01:23:09;;;;;;;0.00;0.00;;;0.90;86.20;;;;;;4162737;28;20049;-59
2022/01/14 01:25:50;;;;;;;0.00;0.00;;;0.90;86.30;;;;;;4162666;28;20490;-59
2022/01/14 01:28:26;;;;;;;0.00;0.00;;;0.80;86.30;;;;;;4161273;28;20095;-59
2022/01/14 01:33:33;;;;;;;0.00;0.00;;;0.70;86.80;;;;;;4162420;28;20065;-59
2022/01/14 01:35:56;;;;;;;0.00;0.00;;;0.70;87.10;;;;;;4162712;28;20045;-60
2022/01/14 01:38:26;;;;;;;0.00;0.00;;;0.80;87.00;;;;;;4173196;28;20045;-59
2022/01/14 01:40:51;;;;;;;0.00;0.00;;;0.90;87.00;;;;;;4178781;28;20073;-58
2022/01/14 01:43:29;;;;;;;0.00;0.00;;;0.90;86.90;;;;;;4178120;28;20078;-58
2022/01/14 01:45:55;;;;;;;0.00;0.00;;;0.90;86.90;;;;;;4179106;28;20049;-59
2022/01/14 01:48:25;;;;;;;0.00;0.00;;;1.00;86.70;;;;;;4178704;28;20049;-59
2022/01/14 01:50:52;;;;;;;0.00;0.00;;;1.00;86.50;;;;;;4177706;28;20052;-58
2022/01/14 01:53:25;;;;;;;0.00;0.00;;;1.10;86.40;;;;;;4179111;28;20133;-60
2022/01/14 01:56:05;;;;;;;0.00;0.00;;;1.10;86.20;;;;;;4178355;28;20132;-59
2022/01/14 01:58:41;;;;;;;0.00;0.00;;;1.00;86.30;;;;;;4178475;28;20041;-60
2022/01/14 02:01:15;;;;;;;0.00;0.00;;;1.00;86.40;;;;;;4178606;28;20140;-58
2022/01/14 02:03:44;;;;;;;0.00;0.00;;;1.00;86.40;;;;;;4177795;28;20088;-59
2022/01/14 02:06:22;;;;;;;0.00;0.00;;;1.00;86.50;;;;;;4178616;28;20422;-59
2022/01/14 02:08:50;;;;;;;0.00;0.00;;;0.90;86.80;;;;;;4178708;28;20134;-59
2022/01/14 02:11:24;;;;;;;0.00;0.00;;;1.00;86.70;;;;;;4181781;28;20044;-58
2022/01/14 02:13:59;;;;;;;0.00;0.00;;;1.00;86.80;;;;;;4180985;28;20167;-59
2022/01/14 02:17:00;;;;;;;0.00;0.00;;;1.00;86.60;;;;;;4180718;28;20045;-58
2022/01/14 02:19:30;;;;;;;0.00;0.00;;;1.10;86.40;;;;;;4182065;28;20073;-59
2022/01/14 02:22:12;;;;;;;0.00;0.00;;;1.00;86.40;;;;;;4181721;28;20053;-57
2022/01/14 02:24:57;;;;;;;0.00;0.00;;;1.10;86.40;;;;;;4181622;28;20124;-58
2022/01/14 02:27:38;;;;;;;0.00;0.00;;;1.10;86.10;;;;;;4181953;28;20147;-60
2022/01/14 02:30:16;;;;;;;0.00;0.00;;;1.20;86.00;;;;;;4181408;28;20136;-58
2022/01/14 02:32:40;;;;;;;0.00;0.00;;;1.20;85.90;;;;;;4180598;28;20072;-60
2022/01/14 02:35:03;;;;;;;0.00;0.00;;;1.20;85.70;;;;;;4180783;28;20106;-59
2022/01/14 02:37:37;;;;;;;0.00;0.00;;;1.20;85.50;;;;;;4180775;28;20418;-59
2022/01/14 02:39:59;;;;;;;0.00;0.00;;;1.20;85.30;;;;;;4180732;28;20110;-59
2022/01/14 02:42:22;;;;;;;0.00;0.00;;;1.30;85.30;;;;;;4179966;28;20060;-59
2022/01/14 02:44:44;;;;;;;0.00;0.00;;;1.30;85.20;;;;;;4180738;28;20047;-60
2022/01/14 02:47:07;;;;;;;0.00;0.00;;;1.30;85.60;;;;;;4180632;28;20564;-59
2022/01/14 02:49:31;;;;;;;0.00;0.00;;;1.30;85.40;;;;;;4180590;28;20056;-59
2022/01/14 02:51:56;;;;;;;0.00;0.00;;;1.30;84.70;;;;;;4180241;28;20211;-60
2022/01/14 02:54:24;;;;;;;0.00;0.00;;;1.40;84.60;;;;;;4180149;28;20598;-59
2022/01/14 02:56:51;;;;;;;0.00;0.00;;;1.40;84.50;;;;;;4167682;28;20073;-59
2022/01/14 02:59:15;;;;;;;0.00;0.00;;;1.40;84.40;;;;;;4180665;28;20052;-63
2022/01/14 03:01:38;;;;;;;0.00;0.00;;;1.40;84.20;;;;;;4180115;28;20044;-59
2022/01/14 03:04:03;;;;;;;0.00;0.00;;;1.40;84.20;;;;;;4166891;28;20536;-60
2022/01/14 03:06:27;;;;;;;0.00;0.00;;;1.40;83.90;;;;;;4179975;28;20053;-59
2022/01/14 03:08:49;;;;;;;0.00;0.00;;;1.40;83.90;;;;;;4178777;28;20415;-59
2022/01/14 03:11:23;;;;;;;0.00;0.00;;;1.30;83.80;;;;;;4174058;28;20429;-59
2022/01/14 03:13:46;;;;;;;0.00;0.00;;;1.20;84.00;;;;;;4180086;28;20108;-60
2022/01/14 03:16:09;;;;;;;0.00;0.00;;;1.10;84.20;;;;;;4176801;28;20533;-59
2022/01/14 03:18:45;;;;;;;0.00;0.00;;;1.20;84.10;;;;;;4163308;28;20136;-59
2022/01/14 03:21:11;;;;;;;0.00;0.00;;;1.20;83.70;;;;;;4178179;28;20050;-59
2022/01/14 03:23:41;;;;;;;0.00;0.00;;;1.30;83.80;;;;;;4179846;28;20082;-59
2022/01/14 03:26:03;;;;;;;0.00;0.00;;;1.30;83.50;;;;;;4166212;28;20049;-59
2022/01/14 03:28:26;;;;;;;0.00;0.00;;;1.30;83.30;;;;;;4179597;28;20060;-59
2022/01/14 03:30:50;;;;;;;0.00;0.00;;;1.10;83.40;;;;;;4179131;28;20519;-60
2022/01/14 03:33:13;;;;;;;0.00;0.00;;;1.00;83.90;;;;;;4179874;28;20053;-59
2022/01/14 03:35:36;;;;;;;0.00;0.00;;;1.00;84.00;;;;;;4179848;28;20100;-60
2022/01/14 03:37:58;;;;;;;0.00;0.00;;;0.90;84.10;;;;;;4179836;28;20107;-60
2022/01/14 03:40:22;;;;;;;0.00;0.00;;;1.00;84.30;;;;;;4179626;28;20059;-60
2022/01/14 03:42:44;;;;;;;0.00;0.00;;;1.00;84.40;;;;;;4179581;28;20076;-59
2022/01/14 03:45:07;;;;;;;0.00;0.00;;;1.00;84.40;;;;;;4179698;28;20095;-60
2022/01/14 03:47:29;;;;;;;0.00;0.00;;;0.90;84.40;;;;;;4179806;28;20534;-59
2022/01/14 03:49:52;;;;;;;0.00;0.00;;;0.90;84.50;;;;;;4179679;28;20364;-60
2022/01/14 03:52:14;;;;;;;0.00;0.00;;;1.00;84.60;;;;;;4179059;28;20045;-58
2022/01/14 03:54:37;;;;;;;0.00;0.00;;;1.00;84.60;;;;;;4193417;28;20090;-60
2022/01/14 03:56:59;;;;;;;0.00;0.00;;;1.00;84.70;;;;;;4179395;28;20124;-59
2022/01/14 03:59:21;;;;;;;0.00;0.00;;;0.90;85.30;;;;;;4179516;28;20112;-60
2022/01/14 04:01:43;;;;;;;0.00;0.00;;;0.90;84.90;;;;;;4179114;28;20127;-59
2022/01/14 04:04:06;;;;;;;0.00;0.00;;;0.90;85.00;;;;;;4179541;28;20041;-57
2022/01/14 04:06:30;;;;;;;0.00;0.00;;;0.90;85.10;;;;;;4179127;28;20056;-59
2022/01/14 04:08:53;;;;;;;0.00;0.00;;;1.00;85.10;;;;;;4193441;28;20049;-59
2022/01/14 04:11:15;;;;;;;0.00;0.00;;;1.10;85.10;;;;;;4179229;28;20084;-59
2022/01/14 04:13:55;;;;;;;0.00;0.00;;;1.10;85.50;;;;;;4179335;28;20158;-59
2022/01/14 04:16:20;;;;;;;0.00;0.00;;;1.10;84.80;;;;;;4165237;28;20123;-58
2022/01/14 04:18:42;;;;;;;0.00;0.00;;;1.10;84.80;;;;;;4179318;28;20044;-60
2022/01/14 04:21:05;;;;;;;0.00;0.00;;;1.20;84.80;;;;;;4179051;28;20052;-60
2022/01/14 04:23:27;;;;;;;0.00;0.00;;;1.20;84.60;;;;;;4165282;28;20530;-59
2022/01/14 04:25:51;;;;;;;0.00;0.00;;;1.20;84.40;;;;;;4179042;28;20094;-59
2022/01/14 04:28:14;;;;;;;0.00;0.00;;;1.20;84.20;;;;;;4178853;28;20056;-59
2022/01/14 04:30:37;;;;;;;0.00;0.00;;;1.30;84.00;;;;;;4175424;28;20459;-57
2022/01/14 04:33:02;;;;;;;0.00;0.00;;;1.20;84.00;;;;;;4162297;28;20064;-61
2022/01/14 04:35:26;;;;;;;0.00;0.00;;;1.20;84.10;;;;;;4172678;28;20095;-59
2022/01/14 04:37:49;;;;;;;0.00;0.00;;;1.20;84.00;;;;;;4192545;28;20186;-59
2022/01/14 04:40:15;;;;;;;0.00;0.00;;;1.20;84.00;;;;;;4178665;28;20128;-60
2022/01/14 04:42:40;;;;;;;0.00;0.00;;;1.20;84.10;;;;;;4178666;28;20051;-59
2022/01/14 04:45:04;;;;;;;0.00;0.00;;;1.30;84.00;;;;;;4192624;28;20049;-59
2022/01/14 04:47:44;;;;;;;0.00;0.00;;;1.30;83.90;;;;;;4178817;28;20557;-59
2022/01/14 04:50:07;;;;;;;0.00;0.00;;;1.30;83.80;;;;;;4178689;28;20064;-60
2022/01/14 04:52:30;;;;;;;0.00;0.00;;;1.20;83.80;;;;;;4192233;28;20064;-59
2022/01/14 04:54:52;;;;;;;0.00;0.00;;;1.20;83.80;;;;;;4178757;28;20072;-58
2022/01/14 04:57:16;;;;;;;0.00;0.00;;;1.20;83.70;;;;;;4164914;28;20580;-59
2022/01/14 04:59:38;;;;;;;0.00;0.00;;;1.30;83.60;;;;;;4178389;28;20064;-59
2022/01/14 05:02:01;;;;;;;0.00;0.00;;;1.20;83.50;;;;;;4163058;28;20124;-59
2022/01/14 05:04:24;;;;;;;0.00;0.00;;;1.30;83.40;;;;;;4163545;28;20042;-58
2022/01/14 05:06:53;;;;;;;0.00;0.00;;;1.30;83.30;;;;;;4178640;28;20091;-59
2022/01/14 05:09:23;;;;;;;0.00;0.00;;;1.30;83.20;;;;;;4178635;28;20045;-59
2022/01/14 05:11:53;;;;;;;0.00;0.00;;;1.30;83.00;;;;;;4178509;28;20124;-59
2022/01/14 05:14:15;;;;;;;0.00;0.00;;;1.30;83.00;;;;;;4178333;28;20136;-59
2022/01/14 05:16:37;;;;;;;0.00;0.00;;;1.30;82.80;;;;;;4178644;28;20102;-59
2022/01/14 05:18:59;;;;;;;0.00;0.00;;;1.30;82.70;;;;;;4192609;28;20066;-59
2022/01/14 05:21:22;;;;;;;0.00;0.00;;;1.30;82.60;;;;;;4178380;28;20091;-58
2022/01/14 05:23:44;;;;;;;0.00;0.00;;;1.30;82.70;;;;;;4164908;28;20075;-60
2022/01/14 05:26:06;;;;;;;0.00;0.00;;;1.30;82.70;;;;;;4192526;28;20044;-55
2022/01/14 05:28:29;;;;;;;0.00;0.00;;;1.30;82.60;;;;;;4178103;28;20059;-59
2022/01/14 05:30:51;;;;;;;0.00;0.00;;;1.30;82.60;;;;;;4178302;28;20047;-56
2022/01/14 05:33:15;;;;;;;0.00;0.00;;;1.30;82.50;;;;;;4178145;28;20387;-59
2022/01/14 05:35:38;;;;;;;0.00;0.00;;;1.30;82.50;;;;;;4180306;28;20605;-60
2022/01/14 05:38:00;;;;;;;0.00;0.00;;;1.30;82.40;;;;;;4161809;28;20083;-59
2022/01/14 05:40:25;;;;;;;0.00;0.00;;;1.30;82.40;;;;;;4205766;28;20083;-59
2022/01/14 05:42:48;;;;;;;0.00;0.00;;;1.20;82.30;;;;;;4178222;28;20037;-59
2022/01/14 05:45:13;;;;;;;0.00;0.00;;;1.30;82.40;;;;;;4169478;28;20107;-58
2022/01/14 05:47:38;;;;;;;0.00;0.00;;;1.20;82.30;;;;;;4173428;28;20417;-56
2022/01/14 05:50:03;;;;;;;0.00;0.00;;;1.20;82.40;;;;;;4178305;28;20056;-59
2022/01/14 05:52:25;;;;;;;0.00;0.00;;;1.20;82.40;;;;;;4177573;28;20438;-59
2022/01/14 05:54:51;;;;;;;0.00;0.00;;;1.20;82.40;;;;;;4178323;28;20045;-58
2022/01/14 05:57:14;;;;;;;0.00;0.00;;;1.20;82.50;;;;;;4178097;28;20132;-59
2022/01/14 05:59:36;;;;;;;0.00;0.00;;;1.10;82.70;;;;;;4166329;28;20049;-58
2022/01/14 06:01:59;;;;;;;0.00;0.00;;;1.10;82.80;;;;;;4172753;28;20053;-58
2022/01/14 06:04:22;;;;;;;0.00;0.00;;;1.10;82.90;;;;;;4189188;28;20048;-58
2022/01/14 06:06:44;;;;;;;0.00;0.00;;;1.10;83.10;;;;;;4161459;28;20377;-57
2022/01/14 06:09:07;;;;;;;0.00;0.00;;;1.20;83.10;;;;;;4175382;28;20132;-58
2022/01/14 06:11:29;;;;;;;0.00;0.00;;;1.20;83.00;;;;;;4161247;28;20053;-59
2022/01/14 06:13:52;;;;;;;0.00;0.00;;;1.20;83.00;;;;;;4175229;28;20568;-59
2022/01/14 06:16:15;;;;;;;0.00;0.00;;;1.20;82.90;;;;;;4161026;28;20049;-59
2022/01/14 06:18:38;;;;;;;0.00;0.00;;;1.20;82.90;;;;;;4161437;28;20038;-60
2022/01/14 06:21:00;;;;;;;0.00;0.00;;;1.30;82.90;;;;;;4161289;28;20400;-59
2022/01/14 06:23:22;;;;;;;0.00;0.00;;;1.20;82.70;;;;;;4161192;28;20052;-59
2022/01/14 06:26:06;;;;;;;0.00;0.00;;;1.20;82.80;;;;;;4161494;28;20056;-59
2022/01/14 06:28:28;;;;;;;0.00;0.00;;;1.20;82.70;;;;;;4161017;28;20132;-59
2022/01/14 06:30:51;;;;;;;0.00;0.00;;;1.20;82.80;;;;;;4155786;28;20511;-59
2022/01/14 06:33:13;;;;;;;0.00;0.00;;;1.10;82.60;;;;;;4153516;28;20049;-59
2022/01/14 06:35:36;;;;;;;0.00;0.00;;;1.10;82.90;;;;;;4149733;28;20050;-58
2022/01/14 06:38:00;;;;;;;0.00;0.00;;;1.10;82.80;;;;;;4159713;28;20046;-59
2022/01/14 06:40:22;;;;;;;0.00;0.00;;;1.10;82.80;;;;;;4174779;28;20052;-59
2022/01/14 06:42:45;;;;;;;0.00;0.00;;;1.10;82.90;;;;;;4161163;28;20161;-58
2022/01/14 06:45:09;;;;;;;0.00;0.00;;;1.10;82.90;;;;;;4161280;28;20046;-60
2022/01/14 06:47:31;;;;;;;0.00;0.00;;;1.20;83.10;;;;;;4149862;28;20129;-58
2022/01/14 06:49:54;;;;;;;0.00;0.00;;;1.20;83.00;;;;;;4158836;28;20136;-59
2022/01/14 06:52:18;;;;;;;0.00;0.00;;;1.20;83.10;;;;;;4174294;28;20132;-60
2022/01/14 06:54:41;;;;;;;0.00;0.00;;;1.30;82.90;;;;;;4157089;28;20042;-61
2022/01/14 06:57:03;;;;;;;0.00;0.00;;;1.30;82.90;;;;;;4159003;28;20081;-61
2022/01/14 06:59:26;;;;;;;0.00;0.00;;;1.30;83.00;;;;;;4156471;28;20049;-59
2022/01/14 07:01:48;;;;;;;0.00;0.00;;;1.30;83.20;;;;;;4176103;28;20052;-59
2022/01/14 07:04:11;;;;;;;0.00;0.00;;;1.20;83.30;;;;;;4176218;28;20044;-60
2022/01/14 07:06:34;;;;;;;0.00;0.00;;;1.20;83.50;;;;;;4162374;28;20041;-59
2022/01/14 07:08:56;;;;;;;0.00;0.00;;;1.20;83.70;;;;;;4190285;28;20037;-60
2022/01/14 07:11:19;;;;;;;0.00;0.00;;;1.20;83.90;;;;;;4162379;28;20442;-60
2022/01/14 07:13:41;;;;;;;0.00;0.00;;;1.30;83.90;;;;;;4163496;28;20140;-60
2022/01/14 07:16:05;;;;;;;0.00;0.00;;;1.30;83.80;;;;;;4177747;28;20409;-60
2022/01/14 07:18:27;;;;;;;0.00;0.00;;;1.30;83.80;;;;;;4149281;28;20550;-59
2022/01/14 07:20:49;;;;;;;0.00;0.00;;;1.30;83.70;;;;;;4177385;28;20131;-59
2022/01/14 07:23:12;;;;;;;0.00;0.00;;;1.20;83.80;;;;;;4163673;28;20084;-59
2022/01/14 07:25:35;;;;;;;0.00;0.00;;;1.20;83.80;;;;;;4163593;28;20046;-60
2022/01/14 07:27:57;;;;;;;0.00;0.00;;;1.30;83.80;;;;;;4149143;28;20115;-60
2022/01/14 07:30:21;;;;;;;0.00;0.00;;;1.40;83.90;;;;;;4163614;28;20045;-59
2022/01/14 07:32:45;;;;;;;0.00;0.00;;;1.40;84.00;;;;;;4163765;28;20137;-59
2022/01/14 07:35:07;;;;;;;0.00;0.00;;;1.40;83.80;;;;;;4177398;28;20075;-59
2022/01/14 07:37:30;;;;;;;0.00;0.00;;;1.40;83.80;;;;;;4152864;28;20523;-59
2022/01/14 07:39:52;;;;;;;0.00;0.00;;;1.40;83.80;;;;;;4161065;28;20045;-58
2022/01/14 07:42:15;;;;;;;0.00;0.00;;;1.50;83.90;;;;;;4146505;28;20056;-58
2022/01/14 07:44:38;;;;;;;0.00;0.00;;;1.50;83.90;;;;;;4146997;28;20052;-58
2022/01/14 07:47:01;;;;;;;0.00;0.00;;;1.60;84.00;;;;;;4147110;28;20052;-58
2022/01/14 07:49:23;;;;;;;0.00;0.00;;;1.70;84.10;;;;;;4147110;28;20049;-59
2022/01/14 07:51:46;;;;;;;0.00;0.00;;;1.70;84.00;;;;;;4160410;28;20041;-58
2022/01/14 07:54:08;;;;;;;0.00;0.00;;;1.80;84.00;;;;;;4174609;28;20045;-58
2022/01/14 07:56:53;;;;;;;0.00;0.00;;;1.80;84.10;;;;;;4149492;28;20127;-59
2022/01/14 07:59:19;;;;;;;0.00;0.00;;;1.90;84.50;;;;;;4163348;28;20042;-58
2022/01/14 08:01:43;;;;;;;0.00;0.00;;;2.00;84.30;;;;;;4176798;28;20156;-59
2022/01/14 08:04:07;;;;;;;0.00;0.00;;;2.20;84.20;;;;;;4136164;28;20055;-59
2022/01/14 08:06:37;;;;;;;0.00;0.00;;;2.50;83.90;;;;;;4160253;28;20137;-58
2022/01/14 08:09:00;;;;;;;0.00;0.00;;;2.70;83.30;;;;;;4152893;28;20077;-59
2022/01/14 08:11:22;;;;;;;0.00;0.00;;;2.80;83.00;;;;;;4162981;28;20140;-59
2022/01/14 08:13:45;;;;;;;0.00;0.00;;;3.10;83.10;;;;;;4176923;28;20045;-59
2022/01/14 08:16:07;;;;;;;0.00;0.00;;;3.40;82.50;;;;;;4176818;28;20048;-59
2022/01/14 08:18:30;;;;;;;0.00;0.00;;;3.80;81.60;;;;;;4162727;28;20128;-59
2022/01/14 08:20:53;;;;;;;0.00;0.00;;;4.10;80.80;;;;;;4149285;28;20140;-59
2022/01/14 08:23:15;;;;;;;0.00;0.00;;;4.10;79.80;;;;;;4176827;28;20475;-59
2022/01/14 08:25:37;;;;;;;0.00;0.00;;;4.20;79.20;;;;;;4151246;28;20093;-59
2022/01/14 08:28:00;;;;;;;0.00;0.00;;;4.20;78.90;;;;;;4161303;28;20049;-59
2022/01/14 08:30:29;;;;;;;0.00;0.00;;;4.40;78.50;;;;;;4161238;28;20057;-58
2022/01/14 08:32:52;;;;;;;0.00;0.00;;;4.50;78.00;;;;;;4132987;28;20646;-59
2022/01/14 08:35:14;;;;;;;0.00;0.00;;;4.50;77.90;;;;;;4160017;28;20038;-57
2022/01/14 08:37:38;;;;;;;0.00;0.00;;;4.40;78.00;;;;;;4146367;28;20105;-60
2022/01/14 08:40:00;;;;;;;0.00;0.00;;;4.50;77.70;;;;;;4146163;28;20038;-60
2022/01/14 08:42:23;;;;;;;0.00;0.00;;;4.70;77.20;;;;;;4176026;28;20053;-59
2022/01/14 08:44:45;;;;;;;0.00;0.00;;;5.00;76.60;;;;;;4158007;28;20040;-59
2022/01/14 08:47:09;;;;;;;0.00;0.00;;;5.00;75.50;;;;;;4154091;28;20053;-59
2022/01/14 08:49:33;;;;;;;0.00;0.00;;;4.40;76.80;;;;;;4176490;28;20040;-59
2022/01/14 08:51:55;;;;;;;0.00;0.00;;;4.30;78.10;;;;;;4148010;28;20058;-59
2022/01/14 08:54:18;;;;;;;0.00;0.00;;;5.00;77.30;;;;;;4162134;28;20046;-59
2022/01/14 08:56:41;;;;;;;0.00;0.00;;;5.60;76.10;;;;;;4162371;28;20072;-59
2022/01/14 08:59:04;;;;;;;0.00;0.00;;;6.20;75.00;;;;;;4141979;28;20077;-59
2022/01/14 09:01:27;;;;;;;0.00;0.00;;;6.70;72.80;;;;;;4145885;28;20052;-59
2022/01/14 09:03:50;;;;;;;0.00;0.00;;;7.20;72.30;;;;;;4145928;28;20053;-59
2022/01/14 09:06:12;;;;;;;0.00;0.00;;;7.50;71.20;;;;;;4175888;28;20063;-59
2022/01/14 09:08:35;;;;;;;0.00;0.00;;;7.70;70.50;;;;;;4162555;28;20045;-60
2022/01/14 09:10:57;;;;;;;0.00;0.00;;;7.40;69.60;;;;;;4148436;28;20050;-60
2022/01/14 09:13:19;;;;;;;0.00;0.00;;;7.40;69.20;;;;;;4162275;28;20103;-60
2022/01/14 09:15:42;;;;;;;0.00;0.00;;;6.90;70.20;;;;;;4162190;28;20057;-60
2022/01/14 09:18:04;;;;;;;0.00;0.00;;;7.10;70.60;;;;;;4148579;28;20038;-59
2022/01/14 09:20:28;;;;;;;0.00;0.00;;;7.40;69.90;;;;;;4146646;28;20050;-60
2022/01/14 09:22:56;;;;;;;0.00;0.00;;;7.70;68.90;;;;;;4176034;28;20052;-60
2022/01/14 09:25:20;;;;;;;0.00;0.00;;;7.70;68.40;;;;;;4175999;28;20048;-59
2022/01/14 09:27:42;;;;;;;0.00;0.00;;;7.20;68.70;;;;;;4162171;28;20057;-60
2022/01/14 09:30:06;;;;;;;0.00;0.00;;;6.60;70.70;;;;;;4161921;28;20045;-59
2022/01/14 09:32:28;;;;;;;0.00;0.00;;;7.20;70.80;;;;;;4161478;28;20057;-59
2022/01/14 09:34:51;;;;;;;0.00;0.00;;;6.90;69.40;;;;;;4175720;28;20124;-60
2022/01/14 09:37:13;;;;;;;0.00;0.00;;;6.90;70.20;;;;;;4175915;28;20522;-59
2022/01/14 09:39:36;;;;;;;0.00;0.00;;;7.30;69.30;;;;;;4164145;28;20045;-59
2022/01/14 09:42:00;;;;;;;0.00;0.00;;;7.40;68.50;;;;;;4145368;28;20240;-59
2022/01/14 09:44:22;;;;;;;0.00;0.00;;;7.40;68.60;;;;;;4158883;28;20088;-59
2022/01/14 09:46:49;;;;;;;0.00;0.00;;;6.80;69.30;;;;;;4159468;28;20049;-59
2022/01/14 09:49:14;;;;;;;0.00;0.00;;;7.10;69.60;;;;;;4145554;28;20042;-60
2022/01/14 09:51:36;;;;;;;0.00;0.00;;;7.10;69.60;;;;;;4145298;28;20081;-59
2022/01/14 09:53:59;;;;;;;0.00;0.00;;;7.30;69.00;;;;;;4159244;28;20120;-59
2022/01/14 09:56:23;;;;;;;0.00;0.00;;;7.70;68.00;;;;;;4145173;28;20105;-59
2022/01/14 09:58:48;;;;;;;0.00;0.00;;;8.20;67.30;;;;;;4145755;28;20047;-59
2022/01/14 10:01:15;;;;;;;0.00;0.00;;;8.40;66.10;;;;;;4156482;28;20044;-59
2022/01/14 10:03:52;;;;;;;0.00;0.00;;;8.80;66.70;;;;;;4145347;28;20108;-59
2022/01/14 10:06:45;;;;;;;0.00;0.00;;;9.50;63.80;;;;;;4145377;28;20064;-59
2022/01/14 10:09:09;;;;;;;;;;;8.50;64.70;;;;;;4145809;28;20053;-59
2022/01/14 10:11:32;;;;;;;0.00;0.00;;;8.60;65.90;;;;;;4159067;28;20454;-59
2022/01/14 10:14:07;;;;;;;0.00;0.00;;;8.90;64.70;;;;;;4145357;28;20145;-59
2022/01/14 10:16:29;;;;;;;0.00;0.00;;;9.50;63.80;;;;;;4161325;28;20049;-59
2022/01/14 10:18:52;;;;;;;0.00;0.00;;;9.60;63.00;;;;;;4161589;28;20088;-59
2022/01/14 10:21:14;;;;;;;0.00;0.00;;;9.60;61.70;;;;;;4175311;28;20049;-60
2022/01/14 10:23:42;;;;;;;0.00;0.00;;;9.50;62.50;;;;;;4163701;28;20080;-60
2022/01/14 10:26:05;;;;;;;0.00;0.00;;;9.60;62.00;;;;;;4145483;28;20491;-59
2022/01/14 10:28:27;;;;;;;0.00;0.00;;;9.60;62.30;;;;;;4175034;28;20053;-59
2022/01/14 10:30:51;;;;;;;0.00;0.00;;;9.40;62.40;;;;;;4175608;28;20494;-60
2022/01/14 10:33:17;;;;;;;0.00;0.00;;;9.70;61.70;;;;;;4155866;28;20062;-59
2022/01/14 10:35:42;;;;;;;0.00;0.00;;;10.10;60.30;;;;;;4160470;28;20049;-59
2022/01/14 10:38:07;;;;;;;0.00;0.00;;;10.00;60.00;;;;;;4150966;28;20104;-60
2022/01/14 10:40:33;;;;;;;0.00;0.00;;;10.00;59.90;;;;;;4164006;28;20137;-59
2022/01/14 10:43:02;;;;;;;0.00;0.00;;;9.90;60.10;;;;;;4164580;28;20049;-60
2022/01/14 10:45:46;;;;;;;0.00;0.00;;;10.00;59.90;;;;;;4178303;28;20053;-59
2022/01/14 10:48:12;;;;;;;0.00;0.00;;;10.40;59.30;;;;;;4164442;28;20049;-60
2022/01/14 10:50:37;;;;;;;0.00;0.00;;;10.50;58.90;;;;;;4163747;28;20053;-60
2022/01/14 10:53:01;;;;;;;0.00;0.00;;;11.00;57.50;;;;;;4178236;28;20180;-60
2022/01/14 10:55:29;;;;;;;0.00;0.00;;;11.40;56.10;;;;;;4177972;28;20076;-60
2022/01/14 10:57:53;;;;;;;0.00;0.00;;;11.50;55.10;;;;;;4178259;28;20142;-60
2022/01/14 11:00:41;;;;;;;0.00;0.00;;;11.70;54.80;;;;;;4163751;28;20048;-60
2022/01/14 11:03:04;;;;;;;0.00;0.00;;;11.60;54.60;;;;;;4164402;28;20125;-60
2022/01/14 11:05:26;;;;;;;0.00;0.00;;;11.20;54.80;;;;;;4164261;28;20133;-60
2022/01/14 11:07:51;;;;;;;0.00;0.00;;;11.70;54.20;;;;;;4164593;28;20061;-60
2022/01/14 11:10:33;;;;;;;0.00;0.00;;;11.10;54.20;;;;;;4163882;28;20482;-60
2022/01/14 11:12:57;;;;;;;0.00;0.00;;;11.30;55.10;;;;;;4163967;28;20037;-59
2022/01/14 11:15:21;;;;;;;0.00;0.00;;;11.60;54.20;;;;;;4164256;28;20131;-58
2022/01/14 11:17:49;;;;;;;0.00;0.00;;;12.00;53.40;;;;;;4164073;28;20049;-58
2022/01/14 11:20:30;;;;;;;0.00;0.00;;;12.90;51.60;;;;;;4177499;28;20585;-58
2022/01/14 11:25:39;;;;;;;0.00;0.00;;;13.10;50.60;;;;;;4152610;28;20042;-61
2022/01/14 11:28:01;;;;;;;0.00;0.00;;;14.20;49.60;;;;;;4161425;28;20482;-61
2022/01/14 11:30:39;;;;;;;0.00;0.00;;;14.70;48.20;;;;;;4148831;28;20455;-60
2022/01/14 11:33:03;;;;;;;0.00;0.00;;;15.10;46.40;;;;;;4163697;28;20104;-60
2022/01/14 11:35:27;;;;;;;0.00;0.00;;;14.50;46.50;;;;;;4150024;28;20049;-60
2022/01/14 11:37:50;;;;;;;0.00;0.00;;;14.10;47.20;;;;;;4163806;28;20053;-59
2022/01/14 11:40:15;;;;;;;0.00;0.00;;;13.80;47.40;;;;;;4163090;28;20479;-61
2022/01/14 11:42:43;;;;;;;0.00;0.00;;;13.80;47.40;;;;;;4146401;28;20053;-58
2022/01/14 11:45:07;;;;;;;0.00;0.00;;;12.90;48.20;;;;;;4133326;28;20085;-58
2022/01/14 11:47:43;;;;;;;0.00;0.00;;;11.60;49.50;;;;;;4147193;28;20038;-58
2022/01/14 11:50:27;;;;;;;0.00;0.00;;;10.40;51.40;;;;;;4160870;28;20132;-61
2022/01/14 11:52:51;;;;;;;0.00;0.00;;;9.30;52.90;;;;;;4146652;28;20124;-59
2022/01/14 11:55:22;;;;;;;0.00;0.00;;;8.30;55.50;;;;;;4147131;28;20045;-59
2022/01/14 11:57:46;;;;;;;;;;;7.60;56.90;;;;;;4161299;28;20046;-59
2022/01/14 12:00:41;;;;;;;0.00;0.00;;;7.20;57.70;;;;;;4146922;28;20021;-59
2022/01/14 12:03:14;;;;;;;0.00;0.00;;;7.20;58.40;;;;;;4146439;28;20539;-59
2022/01/14 12:05:55;;;;;;;0.00;0.00;;;7.20;58.20;;;;;;4146863;28;20045;-59
2022/01/14 12:08:20;;;;;;;0.00;0.00;;;7.00;58.40;;;;;;4146476;28;20426;-59
2022/01/14 12:10:47;;;;;;;0.00;0.00;;;6.60;58.90;;;;;;4146618;28;20050;-59
2022/01/14 12:13:24;;;;;;;0.00;0.00;;;6.50;59.90;;;;;;4154782;28;20513;-59
2022/01/14 12:15:58;;;;;;;0.00;0.00;;;6.50;60.50;;;;;;4162965;28;20272;-59
2022/01/14 12:18:57;;;;;;;0.00;0.00;;;6.30;61.70;;;;;;4146434;28;20057;-59
2022/01/14 12:21:39;;;;;;;0.00;0.00;;;6.30;62.10;;;;;;4146497;28;20054;-59
2022/01/14 12:24:02;;;;;;;0.00;0.00;;;6.00;62.10;;;;;;4161662;28;20085;-57
2022/01/14 12:26:24;;;;;;;0.00;0.00;;;5.70;62.70;;;;;;4162540;28;20103;-59
2022/01/14 12:29:15;;;;;;;0.00;0.00;;;5.70;63.60;;;;;;4176702;28;20049;-59
2022/01/14 12:32:07;;;;;;;0.00;0.00;;;5.60;64.60;;;;;;4162604;28;20053;-59
2022/01/14 12:34:31;;;;;;;0.00;0.00;;;5.60;64.70;;;;;;4173805;28;20048;-59
2022/01/14 12:36:54;;;;;;;0.00;0.00;;;5.60;64.90;;;;;;4132709;28;20129;-58
2022/01/14 12:39:18;;;;;;;0.00;0.00;;;5.60;64.90;;;;;;4133084;28;20524;-58
2022/01/14 12:41:41;;;;;;;0.00;0.00;;;5.60;65.20;;;;;;4146027;28;20084;-58
2022/01/14 12:44:04;;;;;;;0.00;0.00;;;5.60;65.50;;;;;;4126033;28;20049;-59
2022/01/14 12:49:16;;;;;;;0.00;0.00;;;5.60;65.10;;;;;;4146253;28;20058;-58
2022/01/14 12:51:39;;;;;;;0.00;0.00;;;5.50;64.90;;;;;;4159698;28;20037;-58
2022/01/14 12:54:04;;;;;;;0.00;0.00;;;5.50;64.90;;;;;;4146051;28;20507;-59
2022/01/14 12:56:33;;;;;;;0.00;0.00;;;5.50;65.20;;;;;;4145719;28;20136;-58
2022/01/14 12:58:57;;;;;;;0.00;0.00;;;5.50;66.10;;;;;;4146354;28;20046;-59
2022/01/14 13:01:25;;;;;;;0.00;0.00;;;5.50;66.40;;;;;;4145817;28;20061;-58
2022/01/14 13:03:48;;;;;;;0.00;0.00;;;5.40;66.70;;;;;;4145880;28;20097;-59
2022/01/14 13:06:11;;;;;;;0.00;0.00;;;5.50;66.60;;;;;;4145642;28;20042;-58
2022/01/14 13:08:33;;;;;;;0.00;0.00;;;5.40;67.40;;;;;;4162162;28;20041;-54
2022/01/14 13:11:06;;;;;;;0.00;0.00;;;5.30;67.50;;;;;;4175940;28;20055;-57